Buoy 13569

sailwx.info

Track history (hours):
 
Tides and Currents Weather Stations Pressure Air Temp Water Temp Dewpoint Dewpoint Depression Visibility Wind Speed Wind Dir Waves Ship Positions

Drifting buoy 13569

Last reported at 2014-Dec-22 23:00 UTC. Time now 2014-Dec-23 02:19 UTC.
Position N 31°30' W 029°56'.

Barometer 1020.0 mb
Water temperature 20.3 ° C

Date/timePositionNaut miles runAvg speedWind from/ knotsBaromVisibWave heightAir tempDewpointWater temp
2014-Dec-22 23:00N 31°30' W 029°56'0 0.3 1020.0 20.3
2014-Dec-22 22:00N 31°30' W 029°56'0 0.1 1020.0 20.3
2014-Dec-22 21:00N 31°30' W 029°56'2 0.7 1020.2 20.3
2014-Dec-22 18:00N 31°31' W 029°58'0 0.0 1020.2 20.4
2014-Dec-22 16:00N 31°31' W 029°58'0 0.0 1020.5 20.4
2014-Dec-22 15:00N 31°31' W 029°58'1 0.1 1021.0 20.5
2014-Dec-22 11:00N 31°30' W 029°59'1 0.2 1023.4 20.5
2014-Dec-22 07:00N 31°31' W 029°59'0 0.0 1022.7 20.5
2014-Dec-22 06:00N 31°31' W 029°59'1 0.7 1023.2 20.5
2014-Dec-22 04:00N 31°32' W 029°60'2 0.3 1023.9 20.6
2014-Dec-21 23:00N 31°31' W 030°01'0 0.1 1025.8 20.6
2014-Dec-21 22:00N 31°31' W 030°01'0 0.0 1025.6 20.6
2014-Dec-21 21:00N 31°31' W 030°01'1 0.5 1025.6 20.7
2014-Dec-21 19:00N 31°31' W 030°02'0 0.0 1025.1 20.7
2014-Dec-21 18:00N 31°31' W 030°02'1 0.3 1025.1 20.7
2014-Dec-21 15:00N 31°30' W 030°02'0 0.0 1025.9 20.7
2014-Dec-21 14:00N 31°30' W 030°02'1 0.4 1026.5 20.7
2014-Dec-21 11:00N 31°29' W 030°01'0 0.0 1027.8 20.7
2014-Dec-21 07:00N 31°29' W 030°01'0 0.0 1026.6 20.7
2014-Dec-21 06:00N 31°29' W 030°01'1 0.3 1026.9 20.7
2014-Dec-21 03:00N 31°30' W 030°02'1 0.4 1028.1 20.7
2014-Dec-21 00:00N 31°30' W 030°01'1 0.6 1029.4 20.6
2014-Dec-20 23:00N 31°30' W 030°01'1 0.3 1029.4 20.6
2014-Dec-20 21:00N 31°30' W 030°00'0 0.1 1028.9 20.6
2014-Dec-20 20:00N 31°30' W 030°00'0 0.2 1028.8 20.6
2014-Dec-20 19:00N 31°30' W 030°00'0 0.0 1028.5 20.7
2014-Dec-20 18:00N 31°30' W 030°00'1 1.1 1028.5 20.7
2014-Dec-20 17:00N 31°31' W 029°59'0 0.0 1028.5 20.7
2014-Dec-20 15:00N 31°31' W 029°59'2 0.6 1028.9 20.7
2014-Dec-20 12:00N 31°29' W 029°58'0 0.0 1030.6 20.7
2014-Dec-20 11:00N 31°29' W 029°58'0 0.0 1030.5 20.7
2014-Dec-20 08:00N 31°29' W 029°58'1 0.7 1029.5 20.7
2014-Dec-20 06:00N 31°30' W 029°57'0 0.0 1029.0 20.7
2014-Dec-20 05:00N 31°30' W 029°57'2 1.5 1029.3 20.7
2014-Dec-20 04:00N 31°31' W 029°57'2 1.5 1029.4 20.7
2014-Dec-20 03:00N 31°30' W 029°57'1 0.1 1029.5 20.7
2014-Dec-19 20:00N 31°30' W 029°57'0 0.4 1029.0 20.7
2014-Dec-19 19:00N 31°31' W 029°57'0 0.2 1028.8 20.7
2014-Dec-19 18:00N 31°31' W 029°57'1 0.5 1028.4 20.7
2014-Dec-19 16:00N 31°31' W 029°56'0 0.5 1028.3 20.7
2014-Dec-19 15:00N 31°31' W 029°56'1 0.7 1028.5 20.7
2014-Dec-19 14:00N 31°31' W 029°56'1 0.3 1029.0 20.7
2014-Dec-19 12:00N 31°30' W 029°55'0 0.0 1030.0 20.7
2014-Dec-19 11:00N 31°30' W 029°55'1 0.3 1029.9 20.7
2014-Dec-19 08:00N 31°31' W 029°55'0 0.4 1028.5 20.7
2014-Dec-19 07:00N 31°31' W 029°55'1 0.6 1028.0 20.7
2014-Dec-19 06:00N 31°31' W 029°54'0 0.0 1028.0 20.7
2014-Dec-19 04:00N 31°31' W 029°54'0 0.0 1028.4 20.7
2014-Dec-19 03:00N 31°31' W 029°54'1 1.2 1028.1 20.7
2014-Dec-19 02:00N 31°32' W 029°55'0 0.0 1028.1 20.7
2014-Dec-18 23:00N 31°32' W 029°55'1 0.5 1028.8 20.7
2014-Dec-18 21:00N 31°32' W 029°56'0 0.0 1028.0 20.7
2014-Dec-18 19:00N 31°32' W 029°56'1 0.6 1027.0 20.7
2014-Dec-18 18:00N 31°32' W 029°55'0 0.4 1026.8 20.7
2014-Dec-18 17:00N 31°32' W 029°54'0 0.0 1026.5 20.7
2014-Dec-18 16:00N 31°32' W 029°54'0 0.0 1026.6 20.7
2014-Dec-18 15:00N 31°32' W 029°54'1 0.7 1026.9 20.7
2014-Dec-18 14:00N 31°32' W 029°54'0 0.0 1027.5 20.7
2014-Dec-18 12:00N 31°32' W 029°54'0 0.2 1028.8 20.7
2014-Dec-18 10:00N 31°32' W 029°53'0 0.0 1028.0 20.6
2014-Dec-18 07:00N 31°32' W 029°53'0 0.1 1026.5 20.6
2014-Dec-18 06:00N 31°32' W 029°53'0 0.4 1026.5 20.6
2014-Dec-18 05:00N 31°32' W 029°53'0 0.0 1026.8 20.6
2014-Dec-18 04:00N 31°32' W 029°53'1 1.0 1027.0 20.6
2014-Dec-18 03:00N 31°33' W 029°52'1 0.2 1027.4 20.6
2014-Dec-17 23:00N 31°32' W 029°53'1 0.3 1028.3 20.6
2014-Dec-17 21:00N 31°33' W 029°53'1 0.4 1028.0 20.6
2014-Dec-17 19:00N 31°32' W 029°52'1 0.6 1027.5 20.7
2014-Dec-17 17:00N 31°32' W 029°51'0 0.0 1027.8 20.6
2014-Dec-17 16:00N 31°32' W 029°51'1 0.3 1027.6 20.5
2014-Dec-17 12:00N 31°32' W 029°50'0 0.0 1030.5 20.4
2014-Dec-17 11:00N 31°32' W 029°50'1 0.7 1030.5 20.4
2014-Dec-17 09:00N 31°31' W 029°48'1 0.2 1030.0 20.4
2014-Dec-17 06:00N 31°31' W 029°47'0 0.0 1029.5 20.4
2014-Dec-17 05:00N 31°31' W 029°47'0 0.2 1030.0 20.4
2014-Dec-17 03:00N 31°32' W 029°47'0 0.0 1031.0 20.4
2014-Dec-17 02:00N 31°32' W 029°47'1 0.4 1031.1 20.4
2014-Dec-17 00:00N 31°32' W 029°46'0 0.4 1031.9 20.4
2014-Dec-16 23:00N 31°32' W 029°47'1 0.9 1031.6 20.4
2014-Dec-16 22:00N 31°31' W 029°46'0 0.0 1031.6 20.4
2014-Dec-16 21:00N 31°31' W 029°46'0 0.4 1031.8 20.4
2014-Dec-16 20:00N 31°31' W 029°46'1 0.3 1031.5 20.4
2014-Dec-16 18:00N 31°31' W 029°45'6 0.3 1031.1 20.5
2014-Dec-15 22:00N 31°32' W 029°38'0 0.0 1034.0 20.3
2014-Dec-15 20:00N 31°32' W 029°38'0 0.0 1033.0 20.4
2014-Dec-15 19:00N 31°32' W 029°38'1 0.8 1032.5 20.3
2014-Dec-15 18:00N 31°31' W 029°37'0 0.0 1032.4 20.4
2014-Dec-15 17:00N 31°31' W 029°37'0 0.0 1032.4 20.4
2014-Dec-15 16:00N 31°31' W 029°37'2 2.1 1032.1 20.4
2014-Dec-15 15:00N 31°32' W 029°35'2 2.1 1032.5 20.4
2014-Dec-15 14:00N 31°31' W 029°37'2 1.1 1032.9 20.3
2014-Dec-15 12:00N 31°32' W 029°35'1 1.0 1033.9 20.3
2014-Dec-15 11:00N 31°32' W 029°34'0 0.0 1033.6 20.3
2014-Dec-15 10:00N 31°32' W 029°34'0 0.0 1033.1 20.3
2014-Dec-15 08:00N 31°32' W 029°34'1 1.0 1032.5 20.3
2014-Dec-15 07:00N 31°32' W 029°32'1 0.6 1032.3 20.4
2014-Dec-15 06:00N 31°32' W 029°32'1 0.5 1032.0 20.4
2014-Dec-15 05:00N 31°32' W 029°32'0 0.0 1032.1 20.4
2014-Dec-15 04:00N 31°32' W 029°32'0 0.0 1032.5 20.4
2014-Dec-15 03:00N 31°32' W 029°32'0 0.0 1032.5 20.4
2014-Dec-15 02:00N 31°32' W 029°32'0 0.0 1032.8 20.4
2014-Dec-14 23:00N 31°32' W 029°32'1 1.2 1033.5 20.4
2014-Dec-14 22:00N 31°33' W 029°31'0 0.0 1033.3 20.4
2014-Dec-14 21:00N 31°33' W 029°31'1 0.7 1032.9 20.4
2014-Dec-14 19:00N 31°32' W 029°30'0 0.0 1031.9 20.4
2014-Dec-14 18:00N 31°32' W 029°30'2 0.8 1031.5 20.4
2014-Dec-14 16:00N 31°31' W 029°29'0 0.0 1030.9 20.4
2014-Dec-14 14:00N 31°31' W 029°29'3 0.9 1031.4 20.4
2014-Dec-14 11:00N 31°31' W 029°26'3 0.7 1032.5 20.4
2014-Dec-14 07:00N 31°32' W 029°23'0 0.0 1030.5 20.3
2014-Dec-14 06:00N 31°32' W 029°23'0 0.0 1030.5 20.3
2014-Dec-14 05:00N 31°32' W 029°23'0 0.0 1030.5 20.3
2014-Dec-14 04:00N 31°32' W 029°23'0 0.0 1030.8 20.4
2014-Dec-14 03:00N 31°32' W 029°23'0 0.1 1030.8 20.3
2014-Dec-13 23:00N 31°32' W 029°23'   1031.0 20.4
Track history (hours):
 
Tides and Currents Weather Stations Pressure Air Temp Water Temp Dewpoint Dewpoint Depression Visibility Wind Speed Wind Dir Waves Ship Positions

Drifting buoy 13569

Last reported at 2014-Dec-22 23:00 UTC. Time now 2014-Dec-23 02:19 UTC.
Position N 31°30' W 029°56'.

Barometer 1020.0 mb
Water temperature 20.3 ° C

Date/timePositionNaut miles runAvg speedWind from/ knotsBaromVisibWave heightAir tempDewpointWater temp
2014-Dec-22 23:00N 31°30' W 029°56'0 0.3 1020.0 20.3
2014-Dec-22 22:00N 31°30' W 029°56'0 0.1 1020.0 20.3
2014-Dec-22 21:00N 31°30' W 029°56'2 0.7 1020.2 20.3
2014-Dec-22 18:00N 31°31' W 029°58'0 0.0 1020.2 20.4
2014-Dec-22 16:00N 31°31' W 029°58'0 0.0 1020.5 20.4
2014-Dec-22 15:00N 31°31' W 029°58'1 0.1 1021.0 20.5
2014-Dec-22 11:00N 31°30' W 029°59'1 0.2 1023.4 20.5
2014-Dec-22 07:00N 31°31' W 029°59'0 0.0 1022.7 20.5
2014-Dec-22 06:00N 31°31' W 029°59'1 0.7 1023.2 20.5
2014-Dec-22 04:00N 31°32' W 029°60'2 0.3 1023.9 20.6
2014-Dec-21 23:00N 31°31' W 030°01'0 0.1 1025.8 20.6
2014-Dec-21 22:00N 31°31' W 030°01'0 0.0 1025.6 20.6
2014-Dec-21 21:00N 31°31' W 030°01'1 0.5 1025.6 20.7
2014-Dec-21 19:00N 31°31' W 030°02'0 0.0 1025.1 20.7
2014-Dec-21 18:00N 31°31' W 030°02'1 0.3 1025.1 20.7
2014-Dec-21 15:00N 31°30' W 030°02'0 0.0 1025.9 20.7
2014-Dec-21 14:00N 31°30' W 030°02'1 0.4 1026.5 20.7
2014-Dec-21 11:00N 31°29' W 030°01'0 0.0 1027.8 20.7
2014-Dec-21 07:00N 31°29' W 030°01'0 0.0 1026.6 20.7
2014-Dec-21 06:00N 31°29' W 030°01'1 0.3 1026.9 20.7
2014-Dec-21 03:00N 31°30' W 030°02'1 0.4 1028.1 20.7
2014-Dec-21 00:00N 31°30' W 030°01'1 0.6 1029.4 20.6
2014-Dec-20 23:00N 31°30' W 030°01'1 0.3 1029.4 20.6
2014-Dec-20 21:00N 31°30' W 030°00'0 0.1 1028.9 20.6
2014-Dec-20 20:00N 31°30' W 030°00'0 0.2 1028.8 20.6
2014-Dec-20 19:00N 31°30' W 030°00'0 0.0 1028.5 20.7
2014-Dec-20 18:00N 31°30' W 030°00'1 1.1 1028.5 20.7
2014-Dec-20 17:00N 31°31' W 029°59'0 0.0 1028.5 20.7
2014-Dec-20 15:00N 31°31' W 029°59'2 0.6 1028.9 20.7
2014-Dec-20 12:00N 31°29' W 029°58'0 0.0 1030.6 20.7
2014-Dec-20 11:00N 31°29' W 029°58'0 0.0 1030.5 20.7
2014-Dec-20 08:00N 31°29' W 029°58'1 0.7 1029.5 20.7
2014-Dec-20 06:00N 31°30' W 029°57'0 0.0 1029.0 20.7
2014-Dec-20 05:00N 31°30' W 029°57'2 1.5 1029.3 20.7
2014-Dec-20 04:00N 31°31' W 029°57'2 1.5 1029.4 20.7
2014-Dec-20 03:00N 31°30' W 029°57'1 0.1 1029.5 20.7
2014-Dec-19 20:00N 31°30' W 029°57'0 0.4 1029.0 20.7
2014-Dec-19 19:00N 31°31' W 029°57'0 0.2 1028.8 20.7
2014-Dec-19 18:00N 31°31' W 029°57'1 0.5 1028.4 20.7
2014-Dec-19 16:00N 31°31' W 029°56'0 0.5 1028.3 20.7
2014-Dec-19 15:00N 31°31' W 029°56'1 0.7 1028.5 20.7
2014-Dec-19 14:00N 31°31' W 029°56'1 0.3 1029.0 20.7
2014-Dec-19 12:00N 31°30' W 029°55'0 0.0 1030.0 20.7
2014-Dec-19 11:00N 31°30' W 029°55'1 0.3 1029.9 20.7
2014-Dec-19 08:00N 31°31' W 029°55'0 0.4 1028.5 20.7
2014-Dec-19 07:00N 31°31' W 029°55'1 0.6 1028.0 20.7
2014-Dec-19 06:00N 31°31' W 029°54'0 0.0 1028.0 20.7
2014-Dec-19 04:00N 31°31' W 029°54'0 0.0 1028.4 20.7
2014-Dec-19 03:00N 31°31' W 029°54'1 1.2 1028.1 20.7
2014-Dec-19 02:00N 31°32' W 029°55'0 0.0 1028.1 20.7
2014-Dec-18 23:00N 31°32' W 029°55'1 0.5 1028.8 20.7
2014-Dec-18 21:00N 31°32' W 029°56'0 0.0 1028.0 20.7
2014-Dec-18 19:00N 31°32' W 029°56'1 0.6 1027.0 20.7
2014-Dec-18 18:00N 31°32' W 029°55'0 0.4 1026.8 20.7
2014-Dec-18 17:00N 31°32' W 029°54'0 0.0 1026.5 20.7
2014-Dec-18 16:00N 31°32' W 029°54'0 0.0 1026.6 20.7
2014-Dec-18 15:00N 31°32' W 029°54'1 0.7 1026.9 20.7
2014-Dec-18 14:00N 31°32' W 029°54'0 0.0 1027.5 20.7
2014-Dec-18 12:00N 31°32' W 029°54'0 0.2 1028.8 20.7
2014-Dec-18 10:00N 31°32' W 029°53'0 0.0 1028.0 20.6
2014-Dec-18 07:00N 31°32' W 029°53'0 0.1 1026.5 20.6
2014-Dec-18 06:00N 31°32' W 029°53'0 0.4 1026.5 20.6
2014-Dec-18 05:00N 31°32' W 029°53'0 0.0 1026.8 20.6
2014-Dec-18 04:00N 31°32' W 029°53'1 1.0 1027.0 20.6
2014-Dec-18 03:00N 31°33' W 029°52'1 0.2 1027.4 20.6
2014-Dec-17 23:00N 31°32' W 029°53'1 0.3 1028.3 20.6
2014-Dec-17 21:00N 31°33' W 029°53'1 0.4 1028.0 20.6
2014-Dec-17 19:00N 31°32' W 029°52'1 0.6 1027.5 20.7
2014-Dec-17 17:00N 31°32' W 029°51'0 0.0 1027.8 20.6
2014-Dec-17 16:00N 31°32' W 029°51'1 0.3 1027.6 20.5
2014-Dec-17 12:00N 31°32' W 029°50'0 0.0 1030.5 20.4
2014-Dec-17 11:00N 31°32' W 029°50'1 0.7 1030.5 20.4
2014-Dec-17 09:00N 31°31' W 029°48'1 0.2 1030.0 20.4
2014-Dec-17 06:00N 31°31' W 029°47'0 0.0 1029.5 20.4
2014-Dec-17 05:00N 31°31' W 029°47'0 0.2 1030.0 20.4
2014-Dec-17 03:00N 31°32' W 029°47'0 0.0 1031.0 20.4
2014-Dec-17 02:00N 31°32' W 029°47'1 0.4 1031.1 20.4
2014-Dec-17 00:00N 31°32' W 029°46'0 0.4 1031.9 20.4
2014-Dec-16 23:00N 31°32' W 029°47'1 0.9 1031.6 20.4
2014-Dec-16 22:00N 31°31' W 029°46'0 0.0 1031.6 20.4
2014-Dec-16 21:00N 31°31' W 029°46'0 0.4 1031.8 20.4
2014-Dec-16 20:00N 31°31' W 029°46'1 0.3 1031.5 20.4
2014-Dec-16 18:00N 31°31' W 029°45'6 0.3 1031.1 20.5
2014-Dec-15 22:00N 31°32' W 029°38'0 0.0 1034.0 20.3
2014-Dec-15 20:00N 31°32' W 029°38'0 0.0 1033.0 20.4
2014-Dec-15 19:00N 31°32' W 029°38'1 0.8 1032.5 20.3
2014-Dec-15 18:00N 31°31' W 029°37'0 0.0 1032.4 20.4
2014-Dec-15 17:00N 31°31' W 029°37'0 0.0 1032.4 20.4
2014-Dec-15 16:00N 31°31' W 029°37'2 2.1 1032.1 20.4
2014-Dec-15 15:00N 31°32' W 029°35'2 2.1 1032.5 20.4
2014-Dec-15 14:00N 31°31' W 029°37'2 1.1 1032.9 20.3
2014-Dec-15 12:00N 31°32' W 029°35'1 1.0 1033.9 20.3
2014-Dec-15 11:00N 31°32' W 029°34'0 0.0 1033.6 20.3
2014-Dec-15 10:00N 31°32' W 029°34'0 0.0 1033.1 20.3
2014-Dec-15 08:00N 31°32' W 029°34'1 1.0 1032.5 20.3
2014-Dec-15 07:00N 31°32' W 029°32'1 0.6 1032.3 20.4
2014-Dec-15 06:00N 31°32' W 029°32'1 0.5 1032.0 20.4
2014-Dec-15 05:00N 31°32' W 029°32'0 0.0 1032.1 20.4
2014-Dec-15 04:00N 31°32' W 029°32'0 0.0 1032.5 20.4
2014-Dec-15 03:00N 31°32' W 029°32'0 0.0 1032.5 20.4
2014-Dec-15 02:00N 31°32' W 029°32'0 0.0 1032.8 20.4
2014-Dec-14 23:00N 31°32' W 029°32'1 1.2 1033.5 20.4
2014-Dec-14 22:00N 31°33' W 029°31'0 0.0 1033.3 20.4
2014-Dec-14 21:00N 31°33' W 029°31'1 0.7 1032.9 20.4
2014-Dec-14 19:00N 31°32' W 029°30'0 0.0 1031.9 20.4
2014-Dec-14 18:00N 31°32' W 029°30'2 0.8 1031.5 20.4
2014-Dec-14 16:00N 31°31' W 029°29'0 0.0 1030.9 20.4
2014-Dec-14 14:00N 31°31' W 029°29'3 0.9 1031.4 20.4
2014-Dec-14 11:00N 31°31' W 029°26'3 0.7 1032.5 20.4
2014-Dec-14 07:00N 31°32' W 029°23'0 0.0 1030.5 20.3
2014-Dec-14 06:00N 31°32' W 029°23'0 0.0 1030.5 20.3
2014-Dec-14 05:00N 31°32' W 029°23'0 0.0 1030.5 20.3
2014-Dec-14 04:00N 31°32' W 029°23'0 0.0 1030.8 20.4
2014-Dec-14 03:00N 31°32' W 029°23'0 0.1 1030.8 20.3
2014-Dec-13 23:00N 31°32' W 029°23'   1031.0 20.4

Dump ship's entire track history